Main page
METAR-TAF:

METAR-TAF

Airports :

Banjul International Airport

Banjul, Gambia

latitude: 13-21N, longitude: 016-48W, elevation: 36 m

Current weather observation

The report was made 1 hour and 18 minutes ago, at 19:00 UTC
Wind 3 kt from variable directions
Temperature 28°C
Humidity 79%
Pressure 1009 hPa
Visibility 10 km or more
Broken clouds at a height of 1200 ft
Broken clouds at a height of 12000 ft

METAR: GBYD 201900Z VRB03KT 9999 BKN012 BKN120 28/24 Q1009

Time: 20:18 (20:18 UTC)

Forecast

The report was made 2 hours and 48 minutes ago, at 17:30 UTC
Forecast valid from 20 at 18 UTC to 21 at 24 UTC
Wind 6 kt from the South/Southwest
Visibility: 8000 m
Broken clouds at a height of 1300 ft
Few clouds at a height of 2500 ft, Cumulonimbus.
thunderstorm
Becoming
from 20 at 22 UTC to 20 at 24 UTC
Scattered clouds at a height of 1300 ft

TAF: GBYD 201730Z 2018/2124 20006KT 8000 TS BKN013 FEW025CB BECMG 2022/2024 NSW SCT013

Weather observations and forecasts of more than 4000 airports (METAR and TAF reports).

The available stations are represented by yellow and red dots on the map.

Hover mouse over dot to see the name of the station.

Then click to see weather observations and forecasts.

To change the map : click on the green buttons with a black cross to zoom in, on the green button with a dash to zoom out, or on the green arrows for adjacent maps.


METAR-TAF: